sensor_id;sensor_type;location;lat;lon;timestamp;pressure;altitude;pressure_sealevel;temperature;humidity
13420;BME280;6781;58.440;15.470;2023-02-22T00:00:12;101335.75;;;-0.71;100.00
13420;BME280;6781;58.440;15.470;2023-02-22T00:02:47;101321.59;;;-0.84;100.00
13420;BME280;6781;58.440;15.470;2023-02-22T00:05:14;101327.91;;;-0.61;100.00
13420;BME280;6781;58.440;15.470;2023-02-22T00:07:45;101329.78;;;-0.70;100.00
13420;BME280;6781;58.440;15.470;2023-02-22T00:10:13;101324.66;;;-0.68;100.00
13420;BME280;6781;58.440;15.470;2023-02-22T00:12:45;101342.41;;;-0.63;100.00
13420;BME280;6781;58.440;15.470;2023-02-22T00:15:12;101330.97;;;-0.86;100.00
13420;BME280;6781;58.440;15.470;2023-02-22T00:17:39;101339.91;;;-0.67;100.00
13420;BME280;6781;58.440;15.470;2023-02-22T00:20:07;101328.78;;;-0.62;100.00
13420;BME280;6781;58.440;15.470;2023-02-22T00:22:34;101346.72;;;-0.67;100.00
13420;BME280;6781;58.440;15.470;2023-02-22T00:25:02;101344.13;;;-0.66;100.00
13420;BME280;6781;58.440;15.470;2023-02-22T00:27:29;101343.63;;;-0.83;100.00
13420;BME280;6781;58.440;15.470;2023-02-22T00:29:56;101346.72;;;-0.67;100.00
13420;BME280;6781;58.440;15.470;2023-02-22T00:32:24;101348.28;;;-0.61;100.00
13420;BME280;6781;58.440;15.470;2023-02-22T00:34:51;101357.72;;;-0.67;100.00
13420;BME280;6781;58.440;15.470;2023-02-22T00:37:19;101366.00;;;-0.55;100.00
13420;BME280;6781;58.440;15.470;2023-02-22T00:39:46;101371.22;;;-0.61;100.00
13420;BME280;6781;58.440;15.470;2023-02-22T00:42:14;101371.91;;;-0.53;100.00
13420;BME280;6781;58.440;15.470;2023-02-22T00:44:41;101370.25;;;-0.56;100.00
13420;BME280;6781;58.440;15.470;2023-02-22T00:47:09;101369.34;;;-0.53;100.00
13420;BME280;6781;58.440;15.470;2023-02-22T00:49:35;101370.34;;;-0.60;100.00
13420;BME280;6781;58.440;15.470;2023-02-22T00:52:03;101361.22;;;-0.71;100.00
13420;BME280;6781;58.440;15.470;2023-02-22T00:54:30;101348.00;;;-0.89;100.00
13420;BME280;6781;58.440;15.470;2023-02-22T00:56:57;101351.97;;;-0.76;100.00
13420;BME280;6781;58.440;15.470;2023-02-22T00:59:25;101352.88;;;-0.79;100.00
13420;BME280;6781;58.440;15.470;2023-02-22T01:01:52;101358.09;;;-0.85;100.00
13420;BME280;6781;58.440;15.470;2023-02-22T01:04:19;101344.19;;;-1.12;100.00
13420;BME280;6781;58.440;15.470;2023-02-22T01:06:46;101341.66;;;-1.13;100.00
13420;BME280;6781;58.440;15.470;2023-02-22T01:09:12;101331.38;;;-1.07;100.00
13420;BME280;6781;58.440;15.470;2023-02-22T01:11:39;101330.72;;;-1.17;100.00
13420;BME280;6781;58.440;15.470;2023-02-22T01:14:06;101324.94;;;-1.26;100.00
13420;BME280;6781;58.440;15.470;2023-02-22T01:16:35;101326.47;;;-1.16;100.00
13420;BME280;6781;58.440;15.470;2023-02-22T01:19:02;101331.56;;;-1.16;100.00
13420;BME280;6781;58.440;15.470;2023-02-22T01:21:30;101329.81;;;-1.14;100.00
13420;BME280;6781;58.440;15.470;2023-02-22T01:23:57;101333.78;;;-1.00;100.00
13420;BME280;6781;58.440;15.470;2023-02-22T01:26:24;101346.81;;;-1.16;100.00
13420;BME280;6781;58.440;15.470;2023-02-22T01:28:51;101346.03;;;-1.20;100.00
13420;BME280;6781;58.440;15.470;2023-02-22T01:31:17;101347.78;;;-1.22;100.00
13420;BME280;6781;58.440;15.470;2023-02-22T01:33:46;101340.97;;;-1.21;100.00
13420;BME280;6781;58.440;15.470;2023-02-22T01:36:12;101340.28;;;-1.31;100.00
13420;BME280;6781;58.440;15.470;2023-02-22T01:38:39;101341.56;;;-1.07;100.00
13420;BME280;6781;58.440;15.470;2023-02-22T01:41:06;101349.03;;;-1.00;100.00
13420;BME280;6781;58.440;15.470;2023-02-22T01:43:33;101361.69;;;-0.95;100.00
13420;BME280;6781;58.440;15.470;2023-02-22T01:46:00;101375.09;;;-0.87;100.00
13420;BME280;6781;58.440;15.470;2023-02-22T01:48:38;101375.06;;;-0.84;100.00
13420;BME280;6781;58.440;15.470;2023-02-22T01:51:08;101378.41;;;-0.82;100.00
13420;BME280;6781;58.440;15.470;2023-02-22T01:53:37;101384.41;;;-0.84;100.00
13420;BME280;6781;58.440;15.470;2023-02-22T01:56:05;101384.41;;;-0.84;100.00
13420;BME280;6781;58.440;15.470;2023-02-22T01:58:33;101383.94;;;-1.06;100.00
13420;BME280;6781;58.440;15.470;2023-02-22T02:01:01;101377.13;;;-1.04;100.00
13420;BME280;6781;58.440;15.470;2023-02-22T02:03:28;101377.94;;;-1.02;100.00
13420;BME280;6781;58.440;15.470;2023-02-22T02:05:57;101367.28;;;-1.22;100.00
13420;BME280;6781;58.440;15.470;2023-02-22T02:08:30;101363.13;;;-1.28;100.00
13420;BME280;6781;58.440;15.470;2023-02-22T02:11:01;101357.31;;;-1.35;100.00
13420;BME280;6781;58.440;15.470;2023-02-22T02:13:28;101348.88;;;-1.37;100.00
13420;BME280;6781;58.440;15.470;2023-02-22T02:15:55;101344.59;;;-1.35;100.00
13420;BME280;6781;58.440;15.470;2023-02-22T02:18:23;101351.97;;;-1.19;100.00
13420;BME280;6781;58.440;15.470;2023-02-22T02:20:55;101359.59;;;-1.19;100.00
13420;BME280;6781;58.440;15.470;2023-02-22T02:23:36;101365.31;;;-1.08;100.00
13420;BME280;6781;58.440;15.470;2023-02-22T02:26:11;101365.72;;;-1.29;100.00
13420;BME280;6781;58.440;15.470;2023-02-22T02:29:06;101359.69;;;-1.24;100.00
13420;BME280;6781;58.440;15.470;2023-02-22T02:31:53;101367.97;;;-1.13;100.00
13420;BME280;6781;58.440;15.470;2023-02-22T02:34:22;101359.66;;;-1.22;100.00
13420;BME280;6781;58.440;15.470;2023-02-22T02:36:55;101365.50;;;-1.17;100.00
13420;BME280;6781;58.440;15.470;2023-02-22T02:39:24;101371.25;;;-1.08;100.00
13420;BME280;6781;58.440;15.470;2023-02-22T02:41:54;101369.88;;;-1.25;100.00
13420;BME280;6781;58.440;15.470;2023-02-22T02:44:23;101368.91;;;-1.18;100.00
13420;BME280;6781;58.440;15.470;2023-02-22T02:46:55;101370.63;;;-1.20;100.00
13420;BME280;6781;58.440;15.470;2023-02-22T02:49:26;101372.47;;;-1.28;100.00
13420;BME280;6781;58.440;15.470;2023-02-22T02:51:57;101373.44;;;-1.36;100.00
13420;BME280;6781;58.440;15.470;2023-02-22T02:54:25;101377.38;;;-1.18;100.00
13420;BME280;6781;58.440;15.470;2023-02-22T02:56:52;101388.59;;;-1.29;100.00
13420;BME280;6781;58.440;15.470;2023-02-22T02:59:24;101401.94;;;-1.17;100.00
13420;BME280;6781;58.440;15.470;2023-02-22T03:01:56;101395.31;;;-1.25;100.00
13420;BME280;6781;58.440;15.470;2023-02-22T03:04:27;101397.88;;;-1.25;100.00
13420;BME280;6781;58.440;15.470;2023-02-22T03:09:37;101401.31;;;-1.29;100.00
13420;BME280;6781;58.440;15.470;2023-02-22T03:12:17;101403.75;;;-1.23;100.00
13420;BME280;6781;58.440;15.470;2023-02-22T03:14:49;101400.41;;;-1.25;100.00
13420;BME280;6781;58.440;15.470;2023-02-22T03:17:25;101403.00;;;-1.28;100.00
13420;BME280;6781;58.440;15.470;2023-02-22T03:19:56;101403.13;;;-1.36;100.00
13420;BME280;6781;58.440;15.470;2023-02-22T03:22:25;101401.31;;;-1.29;100.00
13420;BME280;6781;58.440;15.470;2023-02-22T03:24:58;101407.25;;;-1.29;100.00
13420;BME280;6781;58.440;15.470;2023-02-22T03:27:33;101414.03;;;-1.28;100.00
13420;BME280;6781;58.440;15.470;2023-02-22T03:30:06;101414.25;;;-1.42;100.00
13420;BME280;6781;58.440;15.470;2023-02-22T03:32:38;101423.59;;;-1.44;100.00
13420;BME280;6781;58.440;15.470;2023-02-22T03:35:08;101425.13;;;-1.34;100.00
13420;BME280;6781;58.440;15.470;2023-02-22T03:37:38;101432.00;;;-1.39;100.00
13420;BME280;6781;58.440;15.470;2023-02-22T03:40:06;101423.66;;;-1.47;100.00
13420;BME280;6781;58.440;15.470;2023-02-22T03:42:38;101440.53;;;-1.43;100.00
13420;BME280;6781;58.440;15.470;2023-02-22T03:45:06;101443.91;;;-1.41;100.00
13420;BME280;6781;58.440;15.470;2023-02-22T03:47:36;101446.69;;;-1.56;100.00
13420;BME280;6781;58.440;15.470;2023-02-22T03:50:08;101446.75;;;-1.60;100.00
13420;BME280;6781;58.440;15.470;2023-02-22T03:52:39;101447.53;;;-1.55;100.00
13420;BME280;6781;58.440;15.470;2023-02-22T03:55:07;101446.69;;;-1.56;100.00
13420;BME280;6781;58.440;15.470;2023-02-22T03:57:36;101449.97;;;-1.49;100.00
13420;BME280;6781;58.440;15.470;2023-02-22T04:00:05;101457.59;;;-1.49;100.00
13420;BME280;6781;58.440;15.470;2023-02-22T04:02:33;101449.28;;;-1.59;100.00
13420;BME280;6781;58.440;15.470;2023-02-22T04:05:00;101458.34;;;-1.43;100.00
13420;BME280;6781;58.440;15.470;2023-02-22T04:07:28;101456.75;;;-1.50;100.00
13420;BME280;6781;58.440;15.470;2023-02-22T04:09:55;101450.84;;;-1.52;100.00
13420;BME280;6781;58.440;15.470;2023-02-22T04:12:22;101450.19;;;-1.65;100.00
13420;BME280;6781;58.440;15.470;2023-02-22T04:14:49;101448.50;;;-1.64;100.00
13420;BME280;6781;58.440;15.470;2023-02-22T04:17:15;101446.66;;;-1.54;100.00
13420;BME280;6781;58.440;15.470;2023-02-22T04:19:42;101448.53;;;-1.66;100.00
13420;BME280;6781;58.440;15.470;2023-02-22T04:22:09;101441.94;;;-1.77;100.00
13420;BME280;6781;58.440;15.470;2023-02-22T04:24:38;101447.84;;;-1.75;100.00
13420;BME280;6781;58.440;15.470;2023-02-22T04:27:05;101456.19;;;-1.69;100.00
13420;BME280;6781;58.440;15.470;2023-02-22T04:29:32;101451.00;;;-1.63;100.00
13420;BME280;6781;58.440;15.470;2023-02-22T04:31:59;101446.16;;;-1.76;100.00
13420;BME280;6781;58.440;15.470;2023-02-22T04:34:25;101452.63;;;-1.57;100.00
13420;BME280;6781;58.440;15.470;2023-02-22T04:36:52;101451.09;;;-1.67;100.00
13420;BME280;6781;58.440;15.470;2023-02-22T04:39:19;101458.66;;;-1.64;100.00
13420;BME280;6781;58.440;15.470;2023-02-22T04:41:48;101467.13;;;-1.62;100.00
13420;BME280;6781;58.440;15.470;2023-02-22T04:44:15;101449.56;;;-1.77;100.00
13420;BME280;6781;58.440;15.470;2023-02-22T04:46:42;101467.22;;;-1.70;100.00
13420;BME280;6781;58.440;15.470;2023-02-22T04:49:10;101457.91;;;-1.69;100.00
13420;BME280;6781;58.440;15.470;2023-02-22T04:51:37;101458.13;;;-1.84;100.00
13420;BME280;6781;58.440;15.470;2023-02-22T04:54:05;101461.66;;;-1.94;100.00
13420;BME280;6781;58.440;15.470;2023-02-22T04:56:32;101457.31;;;-1.85;100.00
13420;BME280;6781;58.440;15.470;2023-02-22T04:59:00;101461.59;;;-1.88;100.00
13420;BME280;6781;58.440;15.470;2023-02-22T05:01:29;101460.81;;;-1.95;100.00
13420;BME280;6781;58.440;15.470;2023-02-22T05:03:57;101462.47;;;-1.91;100.00
13420;BME280;6781;58.440;15.470;2023-02-22T05:06:24;101463.09;;;-1.75;100.00
13420;BME280;6781;58.440;15.470;2023-02-22T05:08:51;101473.19;;;-1.72;100.00
13420;BME280;6781;58.440;15.470;2023-02-22T05:11:18;101473.19;;;-1.72;100.00
13420;BME280;6781;58.440;15.470;2023-02-22T05:13:46;101476.78;;;-1.85;100.00
13420;BME280;6781;58.440;15.470;2023-02-22T05:16:14;101471.84;;;-1.94;100.00
13420;BME280;6781;58.440;15.470;2023-02-22T05:18:41;101473.69;;;-2.07;100.00
13420;BME280;6781;58.440;15.470;2023-02-22T05:21:08;101483.88;;;-2.09;100.00
13420;BME280;6781;58.440;15.470;2023-02-22T05:23:35;101490.44;;;-1.92;100.00
13420;BME280;6781;58.440;15.470;2023-02-22T05:26:02;101491.50;;;-2.10;100.00
13420;BME280;6781;58.440;15.470;2023-02-22T05:28:30;101483.78;;;-2.03;100.00
13420;BME280;6781;58.440;15.470;2023-02-22T05:30:57;101483.03;;;-2.09;100.00
13420;BME280;6781;58.440;15.470;2023-02-22T05:33:26;101487.28;;;-2.10;100.00
13420;BME280;6781;58.440;15.470;2023-02-22T05:35:53;101489.72;;;-2.02;100.00
13420;BME280;6781;58.440;15.470;2023-02-22T05:38:20;101490.56;;;-2.02;100.00
13420;BME280;6781;58.440;15.470;2023-02-22T05:40:47;101479.59;;;-2.05;100.00
13420;BME280;6781;58.440;15.470;2023-02-22T05:43:22;101495.59;;;-1.97;100.00
13420;BME280;6781;58.440;15.470;2023-02-22T05:45:51;101499.06;;;-2.06;100.00
13420;BME280;6781;58.440;15.470;2023-02-22T05:48:18;101493.97;;;-2.03;100.00
13420;BME280;6781;58.440;15.470;2023-02-22T05:50:46;101504.88;;;-1.96;100.00
13420;BME280;6781;58.440;15.470;2023-02-22T05:53:14;101504.75;;;-1.85;100.00
13420;BME280;6781;58.440;15.470;2023-02-22T05:55:40;101508.28;;;-1.95;100.00
13420;BME280;6781;58.440;15.470;2023-02-22T05:58:07;101507.19;;;-1.76;100.00
13420;BME280;6781;58.440;15.470;2023-02-22T06:00:34;101508.22;;;-1.91;100.00
13420;BME280;6781;58.440;15.470;2023-02-22T06:03:02;101519.28;;;-1.97;100.00
13420;BME280;6781;58.440;15.470;2023-02-22T06:05:31;101519.50;;;-2.15;100.00
13420;BME280;6781;58.440;15.470;2023-02-22T06:08:00;101505.88;;;-2.08;100.00
13420;BME280;6781;58.440;15.470;2023-02-22T06:10:27;101518.59;;;-2.09;100.00
13420;BME280;6781;58.440;15.470;2023-02-22T06:12:54;101511.13;;;-2.23;100.00
13420;BME280;6781;58.440;15.470;2023-02-22T06:15:22;101511.81;;;-2.09;100.00
13420;BME280;6781;58.440;15.470;2023-02-22T06:17:50;101516.78;;;-1.98;100.00
13420;BME280;6781;58.440;15.470;2023-02-22T06:20:18;101524.31;;;-1.90;100.00
13420;BME280;6781;58.440;15.470;2023-02-22T06:22:45;101522.91;;;-2.16;100.00
13420;BME280;6781;58.440;15.470;2023-02-22T06:25:14;101512.63;;;-2.07;100.00
13420;BME280;6781;58.440;15.470;2023-02-22T06:27:41;101514.28;;;-2.03;100.00
13420;BME280;6781;58.440;15.470;2023-02-22T06:30:09;101521.06;;;-2.02;100.00
13420;BME280;6781;58.440;15.470;2023-02-22T06:32:36;101527.91;;;-2.10;100.00
13420;BME280;6781;58.440;15.470;2023-02-22T06:35:03;101524.47;;;-2.06;100.00
13420;BME280;6781;58.440;15.470;2023-02-22T06:37:30;101527.66;;;-1.88;100.00
13420;BME280;6781;58.440;15.470;2023-02-22T06:39:56;101527.00;;;-2.04;100.00
13420;BME280;6781;58.440;15.470;2023-02-22T06:42:26;101526.25;;;-2.11;100.00
13420;BME280;6781;58.440;15.470;2023-02-22T06:44:53;101524.41;;;-2.00;100.00
13420;BME280;6781;58.440;15.470;2023-02-22T06:47:19;101526.91;;;-1.97;100.00
13420;BME280;6781;58.440;15.470;2023-02-22T06:49:50;101531.22;;;-2.02;100.00
13420;BME280;6781;58.440;15.470;2023-02-22T06:52:17;101527.00;;;-2.04;100.00
13420;BME280;6781;58.440;15.470;2023-02-22T06:54:44;101532.66;;;-1.82;100.00
13420;BME280;6781;58.440;15.470;2023-02-22T06:57:11;101543.06;;;-2.01;100.00
13420;BME280;6781;58.440;15.470;2023-02-22T06:59:39;101541.22;;;-1.89;100.00
13420;BME280;6781;58.440;15.470;2023-02-22T07:02:06;101536.34;;;-2.05;100.00
13420;BME280;6781;58.440;15.470;2023-02-22T07:04:33;101543.13;;;-2.07;100.00
13420;BME280;6781;58.440;15.470;2023-02-22T07:07:00;101550.75;;;-2.07;100.00
13420;BME280;6781;58.440;15.470;2023-02-22T07:09:27;101550.66;;;-1.98;100.00
13420;BME280;6781;58.440;15.470;2023-02-22T07:11:54;101550.66;;;-1.98;100.00
13420;BME280;6781;58.440;15.470;2023-02-22T07:14:21;101546.59;;;-2.14;100.00
13420;BME280;6781;58.440;15.470;2023-02-22T07:16:49;101551.72;;;-2.17;100.00
13420;BME280;6781;58.440;15.470;2023-02-22T07:19:16;101551.56;;;-2.05;100.00
13420;BME280;6781;58.440;15.470;2023-02-22T07:21:44;101557.47;;;-2.03;100.00
13420;BME280;6781;58.440;15.470;2023-02-22T07:24:12;101558.41;;;-2.10;100.00
13420;BME280;6781;58.440;15.470;2023-02-22T07:26:39;101568.56;;;-2.10;100.00
13420;BME280;6781;58.440;15.470;2023-02-22T07:29:06;101564.22;;;-2.00;100.00
13420;BME280;6781;58.440;15.470;2023-02-22T07:31:35;101566.06;;;-2.13;100.00
13420;BME280;6781;58.440;15.470;2023-02-22T07:34:03;101555.84;;;-2.07;100.00
13420;BME280;6781;58.440;15.470;2023-02-22T07:36:30;101566.66;;;-1.89;100.00
13420;BME280;6781;58.440;15.470;2023-02-22T07:38:57;101569.19;;;-1.89;100.00
13420;BME280;6781;58.440;15.470;2023-02-22T07:41:24;101568.41;;;-1.96;100.00
13420;BME280;6781;58.440;15.470;2023-02-22T07:43:51;101569.16;;;-1.86;100.00
13420;BME280;6781;58.440;15.470;2023-02-22T07:46:18;101580.81;;;-1.72;100.00
13420;BME280;6781;58.440;15.470;2023-02-22T07:48:44;101573.97;;;-1.68;100.00
13420;BME280;6781;58.440;15.470;2023-02-22T07:51:14;101574.72;;;-1.60;100.00
13420;BME280;6781;58.440;15.470;2023-02-22T07:53:42;101571.50;;;-1.73;100.00
13420;BME280;6781;58.440;15.470;2023-02-22T07:56:08;101570.88;;;-1.88;100.00
13420;BME280;6781;58.440;15.470;2023-02-22T07:58:35;101571.81;;;-1.95;100.00
13420;BME280;6781;58.440;15.470;2023-02-22T08:01:02;101568.53;;;-2.07;100.00
13420;BME280;6781;58.440;15.470;2023-02-22T08:03:30;101576.66;;;-1.77;100.00
13420;BME280;6781;58.440;15.470;2023-02-22T08:05:58;101569.91;;;-1.78;100.00
13420;BME280;6781;58.440;15.470;2023-02-22T08:08:28;101575.88;;;-1.82;100.00
13420;BME280;6781;58.440;15.470;2023-02-22T08:10:55;101562.06;;;-1.63;100.00
13420;BME280;6781;58.440;15.470;2023-02-22T08:13:22;101563.69;;;-1.57;100.00
13420;BME280;6781;58.440;15.470;2023-02-22T08:15:49;101567.03;;;-1.55;100.00
13420;BME280;6781;58.440;15.470;2023-02-22T08:18:17;101574.59;;;-1.51;100.00
13420;BME280;6781;58.440;15.470;2023-02-22T08:20:45;101567.59;;;-1.34;100.00
13420;BME280;6781;58.440;15.470;2023-02-22T08:23:14;101568.25;;;-1.82;100.00
13420;BME280;6781;58.440;15.470;2023-02-22T08:25:43;101556.19;;;-1.68;100.00
13420;BME280;6781;58.440;15.470;2023-02-22T08:28:10;101561.94;;;-1.54;100.00
13420;BME280;6781;58.440;15.470;2023-02-22T08:30:38;101558.66;;;-1.64;100.00
13420;BME280;6781;58.440;15.470;2023-02-22T08:33:06;101562.88;;;-1.61;100.00
13420;BME280;6781;58.440;15.470;2023-02-22T08:35:34;101556.16;;;-1.65;100.00
13420;BME280;6781;58.440;15.470;2023-02-22T08:38:01;101556.16;;;-1.65;100.00
13420;BME280;6781;58.440;15.470;2023-02-22T08:40:29;101550.91;;;-1.53;100.00
13420;BME280;6781;58.440;15.470;2023-02-22T08:42:58;101554.53;;;-1.72;100.00
13420;BME280;6781;58.440;15.470;2023-02-22T08:45:25;101552.16;;;-1.83;100.00
13420;BME280;6781;58.440;15.470;2023-02-22T08:47:52;101546.97;;;-1.75;100.00
13420;BME280;6781;58.440;15.470;2023-02-22T08:50:20;101539.41;;;-1.78;100.00
13420;BME280;6781;58.440;15.470;2023-02-22T08:52:48;101541.91;;;-1.75;100.00
13420;BME280;6781;58.440;15.470;2023-02-22T08:55:17;101545.16;;;-1.69;100.00
13420;BME280;6781;58.440;15.470;2023-02-22T08:57:44;101537.69;;;-1.76;100.00
13420;BME280;6781;58.440;15.470;2023-02-22T09:00:13;101540.88;;;-1.65;100.00
13420;BME280;6781;58.440;15.470;2023-02-22T09:02:41;101545.94;;;-1.62;100.00
13420;BME280;6781;58.440;15.470;2023-02-22T09:05:08;101538.38;;;-1.68;100.00
13420;BME280;6781;58.440;15.470;2023-02-22T09:07:35;101539.81;;;-1.47;100.00
13420;BME280;6781;58.440;15.470;2023-02-22T09:10:02;101544.97;;;-1.53;100.00
13420;BME280;6781;58.440;15.470;2023-02-22T09:12:29;101539.91;;;-1.55;100.00
13420;BME280;6781;58.440;15.470;2023-02-22T09:14:56;101538.75;;;-1.33;100.00
13420;BME280;6781;58.440;15.470;2023-02-22T09:17:25;101530.25;;;-1.32;100.00
13420;BME280;6781;58.440;15.470;2023-02-22T09:19:52;101527.72;;;-1.33;100.00
13420;BME280;6781;58.440;15.470;2023-02-22T09:22:21;101527.22;;;-1.58;100.00
13420;BME280;6781;58.440;15.470;2023-02-22T09:24:51;101524.69;;;-1.58;100.00
13420;BME280;6781;58.440;15.470;2023-02-22T09:27:22;101516.19;;;-1.55;100.00
13420;BME280;6781;58.440;15.470;2023-02-22T09:29:54;101521.25;;;-1.55;100.00
13420;BME280;6781;58.440;15.470;2023-02-22T09:32:22;101513.44;;;-1.42;100.00
13420;BME280;6781;58.440;15.470;2023-02-22T09:34:54;101514.38;;;-1.47;100.00
13420;BME280;6781;58.440;15.470;2023-02-22T09:37:22;101508.34;;;-1.42;100.00
13420;BME280;6781;58.440;15.470;2023-02-22T09:40:06;101509.09;;;-1.35;100.00
13420;BME280;6781;58.440;15.470;2023-02-22T09:45:35;101516.97;;;-1.52;100.00
13420;BME280;6781;58.440;15.470;2023-02-22T09:48:18;101521.72;;;-1.27;100.00
13420;BME280;6781;58.440;15.470;2023-02-22T09:51:32;101524.75;;;-1.04;100.00
13420;BME280;6781;58.440;15.470;2023-02-22T09:54:57;101525.56;;;-1.02;100.00
13420;BME280;6781;58.440;15.470;2023-02-22T10:03:07;101518.09;;;-1.14;100.00
13420;BME280;6781;58.440;15.470;2023-02-22T10:05:42;101522.75;;;-1.41;100.00
13420;BME280;6781;58.440;15.470;2023-02-22T10:11:29;101522.44;;;-1.19;100.00
13420;BME280;6781;58.440;15.470;2023-02-22T10:14:33;101523.03;;;-1.04;100.00
13420;BME280;6781;58.440;15.470;2023-02-22T10:17:10;101526.00;;;-0.79;100.00
13420;BME280;6781;58.440;15.470;2023-02-22T10:19:46;101523.56;;;-0.83;100.00
13420;BME280;6781;58.440;15.470;2023-02-22T10:22:31;101511.88;;;-0.96;100.00
13420;BME280;6781;58.440;15.470;2023-02-22T10:25:09;101516.94;;;-0.95;100.00
13420;BME280;6781;58.440;15.470;2023-02-22T10:27:50;101510.28;;;-1.02;100.00
13420;BME280;6781;58.440;15.470;2023-02-22T10:30:23;101502.28;;;-0.81;100.00
13420;BME280;6781;58.440;15.470;2023-02-22T10:33:03;101500.59;;;-0.80;100.00
13420;BME280;6781;58.440;15.470;2023-02-22T10:35:35;101497.97;;;-0.77;100.00
13420;BME280;6781;58.440;15.470;2023-02-22T10:38:12;101501.13;;;-0.63;100.00
13420;BME280;6781;58.440;15.470;2023-02-22T10:40:53;101493.63;;;-0.71;100.00
13420;BME280;6781;58.440;15.470;2023-02-22T10:43:31;101487.38;;;-1.02;100.00
13420;BME280;6781;58.440;15.470;2023-02-22T10:46:04;101495.38;;;-0.74;100.00
13420;BME280;6781;58.440;15.470;2023-02-22T10:48:47;101485.00;;;-0.63;100.00
13420;BME280;6781;58.440;15.470;2023-02-22T10:51:18;101488.75;;;-0.83;100.00
13420;BME280;6781;58.440;15.470;2023-02-22T10:53:52;101490.03;;;-0.60;100.00
13420;BME280;6781;58.440;15.470;2023-02-22T10:56:22;101491.09;;;-0.72;100.00
13420;BME280;6781;58.440;15.470;2023-02-22T10:58:54;101488.84;;;-0.89;100.00
13420;BME280;6781;58.440;15.470;2023-02-22T11:01:33;101486.84;;;-0.72;100.00
13420;BME280;6781;58.440;15.470;2023-02-22T11:04:17;101493.72;;;-0.77;100.00
13420;BME280;6781;58.440;15.470;2023-02-22T11:07:08;101492.16;;;-0.84;100.00
13420;BME280;6781;58.440;15.470;2023-02-22T11:09:51;101487.31;;;-0.99;100.00
13420;BME280;6781;58.440;15.470;2023-02-22T11:12:20;101495.53;;;-0.36;100.00
13420;BME280;6781;58.440;15.470;2023-02-22T11:15:13;101492.16;;;-0.38;100.00
13420;BME280;6781;58.440;15.470;2023-02-22T11:17:59;101498.91;;;-0.35;100.00
13420;BME280;6781;58.440;15.470;2023-02-22T11:20:32;101500.91;;;-0.08;100.00
13420;BME280;6781;58.440;15.470;2023-02-22T11:23:12;101489.16;;;-0.15;100.00
13420;BME280;6781;58.440;15.470;2023-02-22T11:25:43;101489.16;;;-0.15;100.00
13420;BME280;6781;58.440;15.470;2023-02-22T11:28:17;101483.78;;;-0.01;100.00
13420;BME280;6781;58.440;15.470;2023-02-22T11:30:57;101490.50;;;0.02;100.00
13420;BME280;6781;58.440;15.470;2023-02-22T11:33:31;101479.34;;;-0.33;100.00
13420;BME280;6781;58.440;15.470;2023-02-22T11:35:59;101479.50;;;-0.42;100.00
13420;BME280;6781;58.440;15.470;2023-02-22T11:38:30;101481.03;;;-0.34;100.00
13420;BME280;6781;58.440;15.470;2023-02-22T11:41:06;101471.03;;;-0.89;100.00
13420;BME280;6781;58.440;15.470;2023-02-22T11:43:39;101472.97;;;-0.55;100.00
13420;BME280;6781;58.440;15.470;2023-02-22T11:46:11;101477.72;;;-0.37;100.00
13420;BME280;6781;58.440;15.470;2023-02-22T11:48:44;101484.00;;;-0.12;100.00
13420;BME280;6781;58.440;15.470;2023-02-22T11:51:18;101483.22;;;-0.15;100.00
13420;BME280;6781;58.440;15.470;2023-02-22T11:53:58;101482.44;;;-0.19;100.00
13420;BME280;6781;58.440;15.470;2023-02-22T11:56:39;101478.97;;;-0.15;100.00
13420;BME280;6781;58.440;15.470;2023-02-22T11:59:11;101476.09;;;-0.41;100.00
13420;BME280;6781;58.440;15.470;2023-02-22T12:01:48;101474.41;;;-0.42;100.00
13420;BME280;6781;58.440;15.470;2023-02-22T12:04:23;101474.88;;;-0.22;100.00
13420;BME280;6781;58.440;15.470;2023-02-22T12:07:13;101475.03;;;-0.76;100.00
13420;BME280;6781;58.440;15.470;2023-02-22T12:09:47;101475.09;;;-0.34;100.00
13420;BME280;6781;58.440;15.470;2023-02-22T12:12:24;101484.50;;;-0.36;100.00
13420;BME280;6781;58.440;15.470;2023-02-22T12:15:02;101477.53;;;-0.28;100.00
13420;BME280;6781;58.440;15.470;2023-02-22T12:17:38;101489.09;;;-0.12;100.00
13420;BME280;6781;58.440;15.470;2023-02-22T12:20:15;101485.41;;;0.02;100.00
13420;BME280;6781;58.440;15.470;2023-02-22T12:22:51;101488.16;;;-0.08;100.00
13420;BME280;6781;58.440;15.470;2023-02-22T12:25:25;101495.38;;;-0.28;100.00
13420;BME280;6781;58.440;15.470;2023-02-22T12:27:59;101486.09;;;-0.32;100.00
13420;BME280;6781;58.440;15.470;2023-02-22T12:30:36;101486.63;;;-0.15;100.00
13420;BME280;6781;58.440;15.470;2023-02-22T12:33:09;101487.38;;;-0.10;100.00
13420;BME280;6781;58.440;15.470;2023-02-22T12:35:43;101514.38;;;-0.01;100.00
13420;BME280;6781;58.440;15.470;2023-02-22T12:38:17;101481.19;;;-0.41;100.00
13420;BME280;6781;58.440;15.470;2023-02-22T12:40:49;101476.56;;;-0.22;100.00
13420;BME280;6781;58.440;15.470;2023-02-22T12:43:19;101476.09;;;-0.41;100.00
13420;BME280;6781;58.440;15.470;2023-02-22T12:45:53;101371.81;;;-0.92;100.00
13420;BME280;6781;58.440;15.470;2023-02-22T12:48:28;101468.38;;;-0.83;100.00
13420;BME280;6781;58.440;15.470;2023-02-22T12:50:58;101465.84;;;-0.38;100.00
13420;BME280;6781;58.440;15.470;2023-02-22T12:53:30;101479.22;;;-0.27;100.00
13420;BME280;6781;58.440;15.470;2023-02-22T12:56:08;101468.22;;;-0.74;100.00
13420;BME280;6781;58.440;15.470;2023-02-22T12:58:48;101468.94;;;-0.67;100.00
13420;BME280;6781;58.440;15.470;2023-02-22T13:01:19;101467.88;;;-0.55;100.00
13420;BME280;6781;58.440;15.470;2023-02-22T13:03:51;101456.66;;;-0.45;100.00
13420;BME280;6781;58.440;15.470;2023-02-22T13:06:23;101448.56;;;-0.67;100.00
13420;BME280;6781;58.440;15.470;2023-02-22T13:08:57;101459.44;;;-0.57;100.00
13420;BME280;6781;58.440;15.470;2023-02-22T13:11:31;101446.88;;;-0.68;100.00